createdAt,value
2024-02-17T00:01:10.313Z,100911.38
2024-02-17T00:03:37.843Z,100899.69
2024-02-17T00:06:05.216Z,100890.94
2024-02-17T00:08:32.638Z,100872.94
2024-02-17T00:10:59.897Z,100883.28
2024-02-17T00:13:27.445Z,100872.34
2024-02-17T00:15:55.571Z,100890.69
2024-02-17T00:18:28.381Z,100879.25
2024-02-17T00:20:59.206Z,100892.75
2024-02-17T00:23:26.617Z,100887.53
2024-02-17T00:25:54.222Z,100874.28
2024-02-17T00:28:27.094Z,100860.94
2024-02-17T00:30:55.394Z,100865.72
2024-02-17T00:33:22.839Z,100858.53
2024-02-17T00:35:53.402Z,100875.78
2024-02-17T00:38:24.019Z,100861.22
2024-02-17T00:40:51.378Z,100866.03
2024-02-17T00:43:18.651Z,100862.09
2024-02-17T00:45:49.966Z,100876.53
2024-02-17T00:48:17.920Z,100868.13
2024-02-17T00:50:49.752Z,100866.31
2024-02-17T00:53:22.553Z,100854.00
2024-02-17T00:55:49.956Z,100834.03
2024-02-17T00:58:17.188Z,100828.19
2024-02-17T01:00:45.638Z,100841.69
2024-02-17T01:03:14.519Z,100842.28
2024-02-17T01:05:43.832Z,100846.34
2024-02-17T01:08:11.865Z,100840.66
2024-02-17T01:10:42.885Z,100822.19
2024-02-17T01:13:10.877Z,100852.06
2024-02-17T01:15:38.340Z,100838.69
2024-02-17T01:18:06.087Z,100832.38
2024-02-17T01:20:33.723Z,100811.03
2024-02-17T01:23:00.939Z,100821.88
2024-02-17T01:25:28.339Z,100821.84
2024-02-17T01:27:55.873Z,100814.03
2024-02-17T01:30:23.156Z,100803.53
2024-02-17T01:32:50.637Z,100825.31
2024-02-17T01:35:17.773Z,100811.97
2024-02-17T01:37:47.473Z,100800.38
2024-02-17T01:40:14.842Z,100819.69
2024-02-17T01:42:42.289Z,100828.72
2024-02-17T01:45:12.277Z,100819.72
2024-02-17T01:47:39.876Z,100792.72
2024-02-17T01:50:08.715Z,100810.28
2024-02-17T01:52:39.378Z,100810.44
2024-02-17T01:55:07.766Z,100801.72
2024-02-17T01:57:35.721Z,100794.34
2024-02-17T02:00:05.879Z,100806.19
2024-02-17T02:02:42.440Z,100807.38
2024-02-17T02:05:10.612Z,100793.13
2024-02-17T02:07:37.996Z,100795.69
2024-02-17T02:10:05.530Z,100790.78
2024-02-17T02:12:32.930Z,100800.69
2024-02-17T02:15:07.332Z,100799.59
2024-02-17T02:17:34.883Z,100793.00
2024-02-17T02:20:02.295Z,100799.59
2024-02-17T02:22:29.684Z,100784.28
2024-02-17T02:25:00.668Z,100779.44
2024-02-17T02:27:28.136Z,100784.84
2024-02-17T02:29:57.510Z,100761.16
2024-02-17T02:32:27.784Z,100763.56
2024-02-17T02:34:56.019Z,100784.09
2024-02-17T02:37:28.951Z,100785.16
2024-02-17T02:39:56.202Z,100787.72
2024-02-17T02:42:23.527Z,100771.97
2024-02-17T02:44:50.860Z,100790.41
2024-02-17T02:47:19.414Z,100783.66
2024-02-17T02:49:47.905Z,100774.94
2024-02-17T02:52:15.950Z,100780.91
2024-02-17T02:54:43.421Z,100767.72
2024-02-17T02:57:10.927Z,100789.50
2024-02-17T02:59:40.478Z,100780.31
2024-02-17T03:02:07.990Z,100773.41
2024-02-17T03:04:35.320Z,100790.06
2024-02-17T03:07:02.756Z,100771.63
2024-02-17T03:09:30.164Z,100770.38
2024-02-17T03:11:57.371Z,100770.84
2024-02-17T03:14:24.815Z,100774.00
2024-02-17T03:16:52.258Z,100769.16
2024-02-17T03:19:19.665Z,100768.69
2024-02-17T03:21:47.170Z,100757.75
2024-02-17T03:24:14.663Z,100755.66
2024-02-17T03:26:42.486Z,100747.69
2024-02-17T03:29:09.662Z,100749.31
2024-02-17T03:31:36.812Z,100743.50
2024-02-17T03:34:07.504Z,100730.75
2024-02-17T03:36:35.292Z,100751.88
2024-02-17T03:39:10.721Z,100740.31
2024-02-17T03:41:38.496Z,100723.75
2024-02-17T03:44:05.959Z,100747.38
2024-02-17T03:46:33.730Z,100747.47
2024-02-17T03:49:01.240Z,100726.50
2024-02-17T03:51:29.684Z,100723.94
2024-02-17T03:53:56.944Z,100721.19
2024-02-17T03:56:25.578Z,100736.94
2024-02-17T03:58:53.405Z,100702.84
2024-02-17T04:01:20.755Z,100712.00
2024-02-17T04:03:48.068Z,100704.50
2024-02-17T04:06:15.666Z,100700.84
2024-02-17T04:08:43.790Z,100701.13
2024-02-17T04:11:11.218Z,100693.94
2024-02-17T04:13:38.608Z,100689.31
2024-02-17T04:16:06.129Z,100675.63
2024-02-17T04:18:33.519Z,100693.94
2024-02-17T04:21:02.335Z,100655.78
2024-02-17T04:23:30.461Z,100668.09
2024-02-17T04:26:01.511Z,100666.63
2024-02-17T04:28:29.067Z,100667.06
2024-02-17T04:30:57.559Z,100669.88
2024-02-17T04:33:25.131Z,100666.13
2024-02-17T04:35:52.923Z,100663.19
2024-02-17T04:38:20.658Z,100647.66
2024-02-17T04:40:48.030Z,100666.22
2024-02-17T04:43:15.217Z,100649.72
2024-02-17T04:45:43.398Z,100660.25
2024-02-17T04:48:10.793Z,100653.81
2024-02-17T04:50:38.337Z,100647.78
2024-02-17T04:53:05.930Z,100647.38
2024-02-17T04:55:34.499Z,100649.59
2024-02-17T04:58:04.570Z,100661.13
2024-02-17T05:00:32.072Z,100634.09
2024-02-17T05:02:59.519Z,100656.16
2024-02-17T05:05:26.948Z,100657.47
2024-02-17T05:07:54.868Z,100667.97
2024-02-17T05:10:22.806Z,100637.00
2024-02-17T05:12:50.380Z,100652.94
2024-02-17T05:15:17.997Z,100649.88
2024-02-17T05:17:45.934Z,100614.44
2024-02-17T05:20:14.164Z,100634.22
2024-02-17T05:22:44.802Z,100643.81
2024-02-17T05:25:12.326Z,100646.22
2024-02-17T05:27:39.891Z,100634.06
2024-02-17T05:30:07.883Z,100624.03
2024-02-17T05:32:35.261Z,100621.53
2024-02-17T05:35:03.608Z,100622.44
2024-02-17T05:37:31.190Z,100627.47
2024-02-17T05:39:58.285Z,100623.41
2024-02-17T05:42:25.797Z,100629.53
2024-02-17T05:44:53.220Z,100634.94
2024-02-17T05:47:20.562Z,100595.25
2024-02-17T05:49:48.088Z,100616.03
2024-02-17T05:52:17.117Z,100639.38
2024-02-17T05:54:44.825Z,100603.28
2024-02-17T05:57:12.937Z,100596.88
2024-02-17T05:59:42.123Z,100628.63
2024-02-17T06:02:09.495Z,100610.25
2024-02-17T06:04:37.447Z,100600.66
2024-02-17T06:07:05.422Z,100606.88
2024-02-17T06:09:32.835Z,100612.47
2024-02-17T06:12:01.400Z,100615.16
2024-02-17T06:14:29.084Z,100614.53
2024-02-17T06:16:57.864Z,100610.34
2024-02-17T06:19:44.023Z,100614.31
2024-02-17T06:22:11.821Z,100616.66
2024-02-17T06:24:39.896Z,100609.34
2024-02-17T06:27:07.156Z,100594.25
2024-02-17T06:29:34.482Z,100597.47
2024-02-17T06:32:01.782Z,100589.66
2024-02-17T06:34:29.526Z,100582.22
2024-02-17T06:36:57.666Z,100595.94
2024-02-17T06:39:25.233Z,100588.13
2024-02-17T06:41:52.552Z,100598.38
2024-02-17T06:44:21.723Z,100585.56
2024-02-17T06:46:49.465Z,100586.88
2024-02-17T06:49:16.908Z,100576.88
2024-02-17T06:51:44.167Z,100571.47
2024-02-17T06:54:11.464Z,100573.03
2024-02-17T06:56:38.743Z,100577.78
2024-02-17T06:59:06.428Z,100578.03
2024-02-17T07:01:33.763Z,100574.16
2024-02-17T07:04:01.345Z,100595.56
2024-02-17T07:06:28.681Z,100559.44
2024-02-17T07:08:56.019Z,100546.88
2024-02-17T07:11:23.916Z,100575.56
2024-02-17T07:13:51.140Z,100574.03
2024-02-17T07:16:18.483Z,100573.00
2024-02-17T07:18:45.922Z,100568.50
2024-02-17T07:21:13.455Z,100564.47
2024-02-17T07:23:40.623Z,100566.00
2024-02-17T07:26:10.154Z,100556.84
2024-02-17T07:28:39.003Z,100546.19
2024-02-17T07:31:06.943Z,100565.47
2024-02-17T07:33:34.634Z,100550.56
2024-02-17T07:36:02.138Z,100548.34
2024-02-17T07:38:29.940Z,100544.13
2024-02-17T07:40:57.135Z,100528.78
2024-02-17T07:43:24.655Z,100520.28
2024-02-17T07:45:52.155Z,100530.09
2024-02-17T07:48:21.240Z,100533.91
2024-02-17T07:50:48.768Z,100515.41
2024-02-17T07:53:16.061Z,100511.19
2024-02-17T07:55:43.644Z,100507.59
2024-02-17T07:58:10.791Z,100483.75
2024-02-17T08:00:40.061Z,100504.72
2024-02-17T08:03:07.930Z,100482.31
2024-02-17T08:05:35.482Z,100497.31
2024-02-17T08:08:02.847Z,100492.97
2024-02-17T08:10:30.102Z,100482.72
2024-02-17T08:12:57.501Z,100478.47
2024-02-17T08:15:24.764Z,100471.03
2024-02-17T08:17:52.733Z,100479.13
2024-02-17T08:20:20.373Z,100471.25
2024-02-17T08:22:47.609Z,100466.19
2024-02-17T08:25:14.873Z,100452.25
2024-02-17T08:27:44.861Z,100458.09
2024-02-17T08:30:13.798Z,100448.47
2024-02-17T08:32:41.178Z,100454.28
2024-02-17T08:35:08.824Z,100455.22
2024-02-17T08:37:36.315Z,100454.56
2024-02-17T08:40:05.417Z,100452.50
2024-02-17T08:42:33.753Z,100436.66
2024-02-17T08:45:01.403Z,100436.75
2024-02-17T08:47:30.216Z,100428.56
2024-02-17T08:49:57.746Z,100430.66
2024-02-17T08:52:25.236Z,100436.00
2024-02-17T08:54:53.603Z,100404.78
2024-02-17T08:57:21.274Z,100412.13
2024-02-17T08:59:48.458Z,100403.56
2024-02-17T09:02:18.827Z,100406.63
2024-02-17T09:04:47.051Z,100410.41
2024-02-17T09:07:14.782Z,100395.38
2024-02-17T09:09:42.450Z,100380.81
2024-02-17T09:12:09.892Z,100380.34
2024-02-17T09:14:38.812Z,100384.19
2024-02-17T09:17:06.956Z,100383.38
2024-02-17T09:19:34.678Z,100379.44
2024-02-17T09:22:02.471Z,100381.56
2024-02-17T09:24:30.116Z,100329.19
2024-02-17T09:26:59.257Z,100366.75
2024-02-17T09:29:26.520Z,100338.59
2024-02-17T09:31:53.827Z,100338.34
2024-02-17T09:34:21.423Z,100356.28
2024-02-17T09:36:49.410Z,100339.38
2024-02-17T09:39:17.174Z,100365.56
2024-02-17T09:41:45.525Z,100360.75
2024-02-17T09:44:13.145Z,100364.13
2024-02-17T09:46:40.507Z,100357.44
2024-02-17T09:49:09.942Z,100337.94
2024-02-17T09:51:38.854Z,100331.75
2024-02-17T09:54:07.422Z,100345.19
2024-02-17T09:56:34.922Z,100339.72
2024-02-17T09:59:02.318Z,100337.03
2024-02-17T10:01:29.795Z,100332.59
2024-02-17T10:03:58.579Z,100333.91
2024-02-17T10:06:26.496Z,100307.31
2024-02-17T10:08:53.999Z,100326.16
2024-02-17T10:11:22.682Z,100322.75
2024-02-17T10:14:00.802Z,100326.28
2024-02-17T10:16:33.006Z,100319.03
2024-02-17T10:19:01.877Z,100300.38
2024-02-17T10:21:30.893Z,100306.59
2024-02-17T10:23:58.129Z,100277.03
2024-02-17T10:26:26.580Z,100279.75
2024-02-17T10:28:58.341Z,100260.25
2024-02-17T10:31:27.348Z,100268.03
2024-02-17T10:33:54.955Z,100268.31
2024-02-17T10:36:24.813Z,100267.16
2024-02-17T10:38:54.735Z,100263.13
2024-02-17T10:41:23.810Z,100249.78
2024-02-17T10:43:52.070Z,100228.53
2024-02-17T10:46:28.653Z,100242.56
2024-02-17T10:49:20.532Z,100242.63
2024-02-17T10:52:06.274Z,100242.59
2024-02-17T10:54:37.095Z,100230.47
2024-02-17T10:57:05.474Z,100217.25
2024-02-17T10:59:34.099Z,100218.09
2024-02-17T11:02:03.113Z,100217.84
2024-02-17T11:04:31.316Z,100217.88
2024-02-17T11:06:59.591Z,100213.53
2024-02-17T11:09:28.305Z,100216.97
2024-02-17T11:11:55.519Z,100225.13
2024-02-17T11:14:40.685Z,100207.63
2024-02-17T11:17:12.711Z,100209.50
2024-02-17T11:19:43.668Z,100201.09
2024-02-17T11:22:11.900Z,100194.19
2024-02-17T11:24:39.544Z,100197.34
2024-02-17T11:27:08.520Z,100198.31
2024-02-17T11:29:37.684Z,100197.72
2024-02-17T11:32:05.792Z,100190.44
2024-02-17T11:34:34.454Z,100188.50
2024-02-17T11:37:03.232Z,100191.56
2024-02-17T11:39:33.706Z,100161.47
2024-02-17T11:42:02.102Z,100160.00
2024-02-17T11:44:29.445Z,100151.34
2024-02-17T11:46:56.875Z,100166.81
2024-02-17T11:49:28.918Z,100136.44
2024-02-17T11:51:58.516Z,100162.97
2024-02-17T11:54:26.063Z,100150.81
2024-02-17T11:56:53.678Z,100134.09
2024-02-17T11:59:21.599Z,100150.69
2024-02-17T12:01:52.357Z,100133.53
2024-02-17T12:04:20.849Z,100135.63
2024-02-17T12:06:49.478Z,100129.50
2024-02-17T12:09:17.627Z,100119.78
2024-02-17T12:11:45.534Z,100119.63
2024-02-17T12:14:13.017Z,100134.66
2024-02-17T12:16:40.529Z,100134.94
2024-02-17T12:19:12.386Z,100118.78
2024-02-17T12:21:40.982Z,100126.88
2024-02-17T12:24:08.824Z,100126.50
2024-02-17T12:26:45.404Z,100110.91
2024-02-17T12:29:16.764Z,100099.59
2024-02-17T12:31:52.422Z,100110.25
2024-02-17T12:34:27.718Z,100095.00
2024-02-17T12:36:55.436Z,100084.66
2024-02-17T12:39:26.531Z,100084.03
2024-02-17T12:42:05.582Z,100107.31
2024-02-17T12:44:33.362Z,100092.59
2024-02-17T12:47:01.338Z,100101.25
2024-02-17T12:49:30.171Z,100089.34
2024-02-17T12:52:00.451Z,100067.09
2024-02-17T12:54:28.563Z,100080.38
2024-02-17T12:56:55.845Z,100079.94
2024-02-17T12:59:23.353Z,100070.34
2024-02-17T13:01:50.586Z,100082.97
2024-02-17T13:04:18.055Z,100079.47
2024-02-17T13:06:45.596Z,100075.34
2024-02-17T13:09:12.956Z,100068.56
2024-02-17T13:11:43.958Z,100051.41
2024-02-17T13:14:11.645Z,100059.53
2024-02-17T13:16:39.129Z,100058.72
2024-02-17T13:19:06.925Z,100043.38
2024-02-17T13:21:34.483Z,100059.34
2024-02-17T13:24:03.372Z,100056.28
2024-02-17T13:26:31.390Z,100040.59
2024-02-17T13:28:58.566Z,100035.63
2024-02-17T13:31:28.000Z,100027.72
2024-02-17T13:33:57.128Z,100038.69
2024-02-17T13:36:25.763Z,100000.09
2024-02-17T13:38:53.128Z,100027.94
2024-02-17T13:41:20.557Z,100029.47
2024-02-17T13:43:49.944Z,100037.34
2024-02-17T13:46:17.521Z,100024.59
2024-02-17T13:48:45.996Z,100012.94
2024-02-17T13:51:14.359Z,100008.09
2024-02-17T13:53:46.420Z,100025.72
2024-02-17T13:56:13.913Z,100031.31
2024-02-17T13:58:41.190Z,100020.50
2024-02-17T14:01:09.106Z,100019.16
2024-02-17T14:03:36.670Z,100001.56
2024-02-17T14:06:04.115Z,100014.56
2024-02-17T14:08:31.383Z,99994.19
2024-02-17T14:10:58.618Z,100009.06
2024-02-17T14:13:26.195Z,100003.53
2024-02-17T14:15:53.574Z,100007.47
2024-02-17T14:18:24.404Z,99972.25
2024-02-17T14:20:54.480Z,99983.28
2024-02-17T14:23:21.788Z,99988.78
2024-02-17T14:25:48.952Z,99973.88
2024-02-17T14:28:16.248Z,99982.38
2024-02-17T14:30:43.610Z,99976.19
2024-02-17T14:33:12.191Z,99968.53
2024-02-17T14:35:39.442Z,99957.06
2024-02-17T14:38:10.795Z,99971.13
2024-02-17T14:40:37.977Z,99966.97
2024-02-17T14:43:06.162Z,99973.50
2024-02-17T14:45:34.721Z,99945.78
2024-02-17T14:48:02.129Z,99951.31
2024-02-17T14:50:29.500Z,99967.81
2024-02-17T14:52:58.709Z,99937.78
2024-02-17T14:55:26.126Z,99963.19
2024-02-17T14:57:53.652Z,99944.09
2024-02-17T15:00:21.270Z,99944.09
2024-02-17T15:02:50.475Z,99956.09
2024-02-17T15:05:18.109Z,99949.63
2024-02-17T15:07:46.320Z,99909.34
2024-02-17T15:10:13.887Z,99938.59
2024-02-17T15:12:41.506Z,99941.00
2024-02-17T15:15:09.276Z,99927.66
2024-02-17T15:17:38.863Z,99934.50
2024-02-17T15:20:08.573Z,99924.47
2024-02-17T15:22:35.989Z,99907.06
2024-02-17T15:25:03.387Z,99902.84
2024-02-17T15:27:31.356Z,99909.16
2024-02-17T15:29:58.798Z,99916.66
2024-02-17T15:32:26.595Z,99928.38
2024-02-17T15:34:54.090Z,99905.97
2024-02-17T15:37:21.388Z,99896.38
2024-02-17T15:39:48.577Z,99912.75
2024-02-17T15:42:15.860Z,99890.50
2024-02-17T15:44:43.386Z,99907.91
2024-02-17T15:47:10.772Z,99888.19
2024-02-17T15:49:38.083Z,99904.47
2024-02-17T15:52:06.673Z,99906.69
2024-02-17T15:54:34.026Z,99901.53
2024-02-17T15:57:01.600Z,99903.47
2024-02-17T15:59:29.793Z,99887.69
2024-02-17T16:01:57.493Z,99878.19
2024-02-17T16:04:25.066Z,99894.59
2024-02-17T16:06:52.397Z,99868.13
2024-02-17T16:09:22.583Z,99879.84
2024-02-17T16:11:50.879Z,99894.41
2024-02-17T16:14:18.044Z,99884.28
2024-02-17T16:16:45.291Z,99865.19
2024-02-17T16:19:13.803Z,99870.25
2024-02-17T16:21:41.335Z,99852.41
2024-02-17T16:24:08.678Z,99867.69
2024-02-17T16:26:40.724Z,99861.81
2024-02-17T16:29:08.188Z,99869.34
2024-02-17T16:31:35.748Z,99850.28
2024-02-17T16:34:04.872Z,99859.16
2024-02-17T16:36:32.219Z,99849.56
2024-02-17T16:39:09.155Z,99866.88
2024-02-17T16:41:38.454Z,99847.50
2024-02-17T16:44:06.397Z,99835.53
2024-02-17T16:46:33.999Z,99833.13
2024-02-17T16:49:02.342Z,99846.97
2024-02-17T16:51:32.110Z,99844.31
2024-02-17T16:54:01.536Z,99815.63
2024-02-17T16:56:28.957Z,99827.53
2024-02-17T16:58:56.465Z,99822.66
2024-02-17T17:01:24.943Z,99814.59
2024-02-17T17:03:52.941Z,99834.38
2024-02-17T17:06:20.769Z,99805.59
2024-02-17T17:08:48.951Z,99816.59
2024-02-17T17:11:23.591Z,99803.19
2024-02-17T17:13:54.348Z,99828.50
2024-02-17T17:16:22.264Z,99799.19
2024-02-17T17:18:49.514Z,99798.84
2024-02-17T17:21:17.296Z,99800.44
2024-02-17T17:23:44.508Z,99790.69
2024-02-17T17:26:13.845Z,99795.84
2024-02-17T17:28:41.307Z,99780.72
2024-02-17T17:31:08.791Z,99784.28
2024-02-17T17:33:36.176Z,99778.25
2024-02-17T17:36:05.004Z,99773.19
2024-02-17T17:38:32.359Z,99788.63
2024-02-17T17:40:59.515Z,99771.31
2024-02-17T17:43:28.288Z,99766.88
2024-02-17T17:45:55.478Z,99775.66
2024-02-17T17:48:23.376Z,99750.19
2024-02-17T17:50:50.725Z,99750.53
2024-02-17T17:53:18.167Z,99758.44
2024-02-17T17:55:48.101Z,99759.94
2024-02-17T17:58:15.524Z,99758.25
2024-02-17T18:00:43.210Z,99761.78
2024-02-17T18:03:10.452Z,99763.41
2024-02-17T18:05:37.998Z,99746.09
2024-02-17T18:08:06.044Z,99748.50
2024-02-17T18:10:34.523Z,99737.47
2024-02-17T18:13:02.483Z,99741.84
2024-02-17T18:15:29.809Z,99740.94
2024-02-17T18:17:58.520Z,99720.00
2024-02-17T18:20:27.538Z,99750.91
2024-02-17T18:22:55.485Z,99737.94
2024-02-17T18:25:23.588Z,99727.66
2024-02-17T18:27:50.941Z,99723.28
2024-02-17T18:30:18.459Z,99720.78
2024-02-17T18:32:46.558Z,99740.53
2024-02-17T18:35:13.738Z,99713.06
2024-02-17T18:37:41.224Z,99722.81
2024-02-17T18:40:09.059Z,99710.75
2024-02-17T18:42:36.973Z,99703.84
2024-02-17T18:45:05.172Z,99700.09
2024-02-17T18:47:32.270Z,99718.50
2024-02-17T18:49:59.697Z,99687.22
2024-02-17T18:52:29.760Z,99694.31
2024-02-17T18:54:57.588Z,99697.06
2024-02-17T18:57:25.213Z,99705.78
2024-02-17T18:59:54.061Z,99702.22
2024-02-17T19:02:21.275Z,99699.47
2024-02-17T19:04:49.344Z,99704.47
2024-02-17T19:07:17.239Z,99673.56
2024-02-17T19:09:44.709Z,99684.72
2024-02-17T19:12:12.597Z,99675.63
2024-02-17T19:14:39.975Z,99684.03
2024-02-17T19:17:08.187Z,99668.41
2024-02-17T19:19:37.123Z,99673.13
2024-02-17T19:22:05.087Z,99665.66
2024-02-17T19:24:32.570Z,99668.25
2024-02-17T19:27:01.371Z,99660.50
2024-02-17T19:29:28.676Z,99653.41
2024-02-17T19:31:56.096Z,99658.75
2024-02-17T19:34:23.363Z,99655.38
2024-02-17T19:36:50.725Z,99656.94
2024-02-17T19:39:18.202Z,99650.03
2024-02-17T19:41:45.451Z,99646.03
2024-02-17T19:44:13.767Z,99650.56
2024-02-17T19:46:41.835Z,99644.88
2024-02-17T19:49:12.131Z,99647.53
2024-02-17T19:51:42.455Z,99634.59
2024-02-17T19:54:09.471Z,99638.28
2024-02-17T19:56:38.187Z,99631.19
2024-02-17T19:59:05.390Z,99623.34
2024-02-17T20:01:33.138Z,99637.97
2024-02-17T20:04:00.736Z,99615.59
2024-02-17T20:06:28.222Z,99590.94
2024-02-17T20:08:56.810Z,99612.03
2024-02-17T20:11:24.109Z,99606.91
2024-02-17T20:13:51.220Z,99604.50
2024-02-17T20:16:18.460Z,99613.28
2024-02-17T20:18:45.790Z,99600.31
2024-02-17T20:21:15.496Z,99584.34
2024-02-17T20:23:42.759Z,99587.75
2024-02-17T20:26:10.073Z,99586.28
2024-02-17T20:28:37.486Z,99588.63
2024-02-17T20:31:05.083Z,99577.97
2024-02-17T20:33:33.205Z,99557.06
2024-02-17T20:36:01.251Z,99576.41
2024-02-17T20:38:28.489Z,99578.88
2024-02-17T20:40:55.703Z,99561.81
2024-02-17T20:43:23.028Z,99568.03
2024-02-17T20:45:50.321Z,99549.94
2024-02-17T20:48:18.976Z,99540.53
2024-02-17T20:50:46.589Z,99565.28
2024-02-17T20:53:13.882Z,99540.44
2024-02-17T20:55:41.123Z,99545.09
2024-02-17T20:58:08.572Z,99532.88
2024-02-17T21:00:36.161Z,99534.81
2024-02-17T21:03:03.797Z,99520.09
2024-02-17T21:05:31.080Z,99501.16
2024-02-17T21:07:59.202Z,99520.91
2024-02-17T21:10:26.514Z,99524.19
2024-02-17T21:12:54.318Z,99505.03
2024-02-17T21:15:22.670Z,99514.06
2024-02-17T21:17:49.945Z,99487.50
2024-02-17T21:20:19.018Z,99492.97
2024-02-17T21:22:46.283Z,99479.31
2024-02-17T21:25:13.807Z,99496.69
2024-02-17T21:27:41.068Z,99481.25
2024-02-17T21:30:10.021Z,99481.25
2024-02-17T21:32:37.265Z,99474.28
2024-02-17T21:35:07.471Z,99470.13
2024-02-17T21:37:34.674Z,99471.44
2024-02-17T21:40:02.050Z,99469.16
2024-02-17T21:42:30.577Z,99471.44
2024-02-17T21:44:57.773Z,99462.72
2024-02-17T21:47:25.323Z,99455.50
2024-02-17T21:49:52.761Z,99459.38
2024-02-17T21:52:20.542Z,99465.16
2024-02-17T21:54:47.908Z,99456.38
2024-02-17T21:57:15.403Z,99454.78
2024-02-17T21:59:43.037Z,99439.88
2024-02-17T22:02:10.391Z,99460.00
2024-02-17T22:04:38.049Z,99451.47
2024-02-17T22:07:05.931Z,99428.13
2024-02-17T22:09:33.335Z,99422.81
2024-02-17T22:12:00.510Z,99422.16
2024-02-17T22:14:27.894Z,99429.16
2024-02-17T22:16:55.281Z,99411.16
2024-02-17T22:19:22.925Z,99408.66
2024-02-17T22:21:50.276Z,99397.06
2024-02-17T22:24:18.967Z,99403.19
2024-02-17T22:26:46.334Z,99403.97
2024-02-17T22:29:13.629Z,99399.81
2024-02-17T22:31:41.126Z,99387.75
2024-02-17T22:34:08.650Z,99369.81
2024-02-17T22:36:38.020Z,99386.28
2024-02-17T22:39:05.420Z,99379.69
2024-02-17T22:41:32.798Z,99362.22
2024-02-17T22:44:01.004Z,99370.09
2024-02-17T22:46:28.156Z,99366.50
2024-02-17T22:48:55.611Z,99371.22
2024-02-17T22:51:23.242Z,99359.22
2024-02-17T22:53:50.619Z,99361.81
2024-02-17T22:56:17.840Z,99354.88
2024-02-17T22:58:45.171Z,99346.56
2024-02-17T23:01:14.430Z,99328.47
2024-02-17T23:03:42.141Z,99332.19
2024-02-17T23:06:10.949Z,99318.75
2024-02-17T23:08:38.228Z,99324.44
2024-02-17T23:11:05.561Z,99313.66
2024-02-17T23:13:33.562Z,99319.94
2024-02-17T23:16:01.876Z,99328.94
2024-02-17T23:18:29.475Z,99307.28
2024-02-17T23:20:56.842Z,99301.38
2024-02-17T23:23:26.279Z,99321.41
2024-02-17T23:25:53.552Z,99312.00
2024-02-17T23:28:20.927Z,99304.69
2024-02-17T23:30:49.053Z,99304.28
2024-02-17T23:33:16.416Z,99305.59
2024-02-17T23:35:43.759Z,99293.31
2024-02-17T23:38:11.016Z,99295.66
2024-02-17T23:40:38.385Z,99272.41
2024-02-17T23:43:05.631Z,99283.88
2024-02-17T23:45:34.725Z,99281.09
2024-02-17T23:48:02.520Z,99269.91
2024-02-17T23:50:32.242Z,99267.25
2024-02-17T23:52:59.675Z,99258.69
2024-02-17T23:55:26.865Z,99266.22
2024-02-17T23:57:54.356Z,99278.00
